sensor_id;sensor_type;location;lat;lon;timestamp;noise_LAeq;noise_LA_min;noise_LA_max;noise_LA01;noise_LA95
60031;Laerm;45901;47.600;9.890;2023-04-03T00:00:59;40.71;39.08;45.17;;
60031;Laerm;45901;47.600;9.890;2023-04-03T00:03:27;40.57;38.95;42.09;;
60031;Laerm;45901;47.600;9.890;2023-04-03T00:05:56;40.58;38.81;42.09;;
60031;Laerm;45901;47.600;9.890;2023-04-03T00:08:23;40.59;38.67;42.16;;
60031;Laerm;45901;47.600;9.890;2023-04-03T00:10:51;40.58;38.81;41.89;;
60031;Laerm;45901;47.600;9.890;2023-04-03T00:13:18;40.62;38.87;42.16;;
60031;Laerm;45901;47.600;9.890;2023-04-03T00:15:46;40.67;38.95;42.88;;
60031;Laerm;45901;47.600;9.890;2023-04-03T00:18:14;40.65;38.67;42.09;;
60031;Laerm;45901;47.600;9.890;2023-04-03T00:20:41;40.63;38.67;42.03;;
60031;Laerm;45901;47.600;9.890;2023-04-03T00:23:10;40.52;38.81;41.96;;
60031;Laerm;45901;47.600;9.890;2023-04-03T00:25:39;40.50;38.52;41.89;;
60031;Laerm;45901;47.600;9.890;2023-04-03T00:28:06;40.47;38.67;41.89;;
60031;Laerm;45901;47.600;9.890;2023-04-03T00:30:34;40.49;38.81;44.11;;
60031;Laerm;45901;47.600;9.890;2023-04-03T00:33:02;40.48;38.95;42.06;;
60031;Laerm;45901;47.600;9.890;2023-04-03T00:35:30;40.50;38.81;42.09;;
60031;Laerm;45901;47.600;9.890;2023-04-03T00:37:57;40.48;38.67;42.03;;
60031;Laerm;45901;47.600;9.890;2023-04-03T00:40:27;40.56;38.95;41.96;;
60031;Laerm;45901;47.600;9.890;2023-04-03T00:42:58;40.54;38.67;42.09;;
60031;Laerm;45901;47.600;9.890;2023-04-03T00:45:35;40.60;38.81;44.35;;
60031;Laerm;45901;47.600;9.890;2023-04-03T00:48:07;40.50;38.81;42.16;;
60031;Laerm;45901;47.600;9.890;2023-04-03T00:50:37;40.49;38.67;41.89;;
60031;Laerm;45901;47.600;9.890;2023-04-03T00:53:07;40.51;38.95;41.89;;
60031;Laerm;45901;47.600;9.890;2023-04-03T00:55:38;40.51;38.95;41.82;;
60031;Laerm;45901;47.600;9.890;2023-04-03T00:58:06;40.54;38.81;41.96;;
60031;Laerm;45901;47.600;9.890;2023-04-03T01:00:36;40.66;38.95;44.58;;
60031;Laerm;45901;47.600;9.890;2023-04-03T01:03:06;40.59;38.95;42.03;;
60031;Laerm;45901;47.600;9.890;2023-04-03T01:05:33;40.54;38.52;41.96;;
60031;Laerm;45901;47.600;9.890;2023-04-03T01:08:01;40.56;38.52;42.19;;
60031;Laerm;45901;47.600;9.890;2023-04-03T01:10:29;40.59;38.95;42.09;;
60031;Laerm;45901;47.600;9.890;2023-04-03T01:12:57;40.54;39.08;41.89;;
60031;Laerm;45901;47.600;9.890;2023-04-03T01:15:28;40.53;38.37;44.95;;
60031;Laerm;45901;47.600;9.890;2023-04-03T01:18:00;40.48;38.95;41.82;;
60031;Laerm;45901;47.600;9.890;2023-04-03T01:21:10;40.49;38.81;42.03;;
60031;Laerm;45901;47.600;9.890;2023-04-03T01:23:58;40.48;38.67;41.82;;
60031;Laerm;45901;47.600;9.890;2023-04-03T01:26:30;40.51;38.81;41.89;;
60031;Laerm;45901;47.600;9.890;2023-04-03T01:29:00;40.51;38.81;41.82;;
60031;Laerm;45901;47.600;9.890;2023-04-03T01:31:41;40.59;38.81;43.90;;
60031;Laerm;45901;47.600;9.890;2023-04-03T01:34:10;40.63;38.95;42.22;;
60031;Laerm;45901;47.600;9.890;2023-04-03T01:36:37;40.58;38.81;42.03;;
60031;Laerm;45901;47.600;9.890;2023-04-03T01:39:06;40.59;38.67;42.03;;
60031;Laerm;45901;47.600;9.890;2023-04-03T01:41:33;40.60;38.67;41.96;;
60031;Laerm;45901;47.600;9.890;2023-04-03T01:44:01;40.57;39.08;41.96;;
60031;Laerm;45901;47.600;9.890;2023-04-03T01:46:29;40.58;38.95;43.64;;
60031;Laerm;45901;47.600;9.890;2023-04-03T01:48:58;40.57;38.81;41.82;;
60031;Laerm;45901;47.600;9.890;2023-04-03T01:51:26;40.55;38.67;41.89;;
60031;Laerm;45901;47.600;9.890;2023-04-03T01:53:53;40.53;38.52;41.96;;
60031;Laerm;45901;47.600;9.890;2023-04-03T01:56:21;40.49;38.81;41.82;;
60031;Laerm;45901;47.600;9.890;2023-04-03T01:58:48;40.51;38.37;41.89;;
60031;Laerm;45901;47.600;9.890;2023-04-03T02:01:16;40.63;38.95;44.83;;
60031;Laerm;45901;47.600;9.890;2023-04-03T02:03:44;40.56;38.37;41.89;;
60031;Laerm;45901;47.600;9.890;2023-04-03T02:06:13;40.52;38.67;41.96;;
60031;Laerm;45901;47.600;9.890;2023-04-03T02:08:40;40.49;38.67;42.16;;
60031;Laerm;45901;47.600;9.890;2023-04-03T02:11:08;40.54;38.67;41.89;;
60031;Laerm;45901;47.600;9.890;2023-04-03T02:13:35;40.57;38.52;42.03;;
60031;Laerm;45901;47.600;9.890;2023-04-03T02:16:08;40.54;38.52;43.77;;
60031;Laerm;45901;47.600;9.890;2023-04-03T02:18:36;40.53;38.95;41.96;;
60031;Laerm;45901;47.600;9.890;2023-04-03T02:21:03;40.46;38.67;41.96;;
60031;Laerm;45901;47.600;9.890;2023-04-03T02:23:33;40.41;38.81;41.89;;
60031;Laerm;45901;47.600;9.890;2023-04-03T02:26:07;40.37;38.67;41.75;;
60031;Laerm;45901;47.600;9.890;2023-04-03T02:28:35;40.30;38.52;41.75;;
60031;Laerm;45901;47.600;9.890;2023-04-03T02:31:04;40.32;38.52;42.88;;
60031;Laerm;45901;47.600;9.890;2023-04-03T02:33:32;40.26;38.52;41.68;;
60031;Laerm;45901;47.600;9.890;2023-04-03T02:35:59;40.25;38.67;41.68;;
60031;Laerm;45901;47.600;9.890;2023-04-03T02:38:27;40.24;38.67;41.61;;
60031;Laerm;45901;47.600;9.890;2023-04-03T02:41:00;40.23;38.37;41.96;;
60031;Laerm;45901;47.600;9.890;2023-04-03T02:43:27;40.18;38.52;41.75;;
60031;Laerm;45901;47.600;9.890;2023-04-03T02:45:55;40.27;38.37;43.54;;
60031;Laerm;45901;47.600;9.890;2023-04-03T02:48:22;40.28;38.52;41.68;;
60031;Laerm;45901;47.600;9.890;2023-04-03T02:50:50;40.29;38.67;41.89;;
60031;Laerm;45901;47.600;9.890;2023-04-03T02:53:17;40.26;38.52;41.61;;
60031;Laerm;45901;47.600;9.890;2023-04-03T02:55:45;40.26;38.67;42.03;;
60031;Laerm;45901;47.600;9.890;2023-04-03T02:58:14;40.25;38.37;41.61;;
60031;Laerm;45901;47.600;9.890;2023-04-03T03:00:42;40.29;38.37;43.54;;
60031;Laerm;45901;47.600;9.890;2023-04-03T03:03:09;40.15;38.52;41.68;;
60031;Laerm;45901;47.600;9.890;2023-04-03T03:05:37;40.17;38.52;41.68;;
60031;Laerm;45901;47.600;9.890;2023-04-03T03:08:04;40.19;38.37;41.68;;
60031;Laerm;45901;47.600;9.890;2023-04-03T03:10:32;40.25;38.52;41.61;;
60031;Laerm;45901;47.600;9.890;2023-04-03T03:12:59;40.30;38.52;41.68;;
60031;Laerm;45901;47.600;9.890;2023-04-03T03:15:28;40.32;38.37;42.59;;
60031;Laerm;45901;47.600;9.890;2023-04-03T03:17:55;40.31;38.52;41.68;;
60031;Laerm;45901;47.600;9.890;2023-04-03T03:20:22;40.35;38.67;42.22;;
60031;Laerm;45901;47.600;9.890;2023-04-03T03:22:50;40.36;38.81;41.68;;
60031;Laerm;45901;47.600;9.890;2023-04-03T03:25:17;40.37;38.52;41.82;;
60031;Laerm;45901;47.600;9.890;2023-04-03T03:27:44;40.40;38.81;41.68;;
60031;Laerm;45901;47.600;9.890;2023-04-03T03:30:12;40.38;38.67;44.07;;
60031;Laerm;45901;47.600;9.890;2023-04-03T03:32:41;40.36;38.52;41.82;;
60031;Laerm;45901;47.600;9.890;2023-04-03T03:35:09;40.38;38.37;41.82;;
60031;Laerm;45901;47.600;9.890;2023-04-03T03:37:36;40.44;38.95;41.82;;
60031;Laerm;45901;47.600;9.890;2023-04-03T03:40:04;40.43;38.95;41.96;;
60031;Laerm;45901;47.600;9.890;2023-04-03T03:42:31;40.39;38.95;41.75;;
60031;Laerm;45901;47.600;9.890;2023-04-03T03:44:58;40.43;38.67;42.03;;
60031;Laerm;45901;47.600;9.890;2023-04-03T03:47:26;40.45;38.52;43.24;;
60031;Laerm;45901;47.600;9.890;2023-04-03T03:49:54;40.50;38.81;42.98;;
60031;Laerm;45901;47.600;9.890;2023-04-03T03:52:21;40.60;38.67;45.80;;
60031;Laerm;45901;47.600;9.890;2023-04-03T03:54:49;40.42;38.67;42.65;;
60031;Laerm;45901;47.600;9.890;2023-04-03T03:57:16;40.37;38.52;41.89;;
60031;Laerm;45901;47.600;9.890;2023-04-03T03:59:43;40.51;38.67;43.54;;
60031;Laerm;45901;47.600;9.890;2023-04-03T04:02:11;40.58;38.81;44.73;;
60031;Laerm;45901;47.600;9.890;2023-04-03T04:04:38;40.51;38.81;42.98;;
60031;Laerm;45901;47.600;9.890;2023-04-03T04:07:06;40.49;38.81;41.96;;
60031;Laerm;45901;47.600;9.890;2023-04-03T04:09:34;40.49;38.37;42.22;;
60031;Laerm;45901;47.600;9.890;2023-04-03T04:12:01;40.43;38.67;42.95;;
60031;Laerm;45901;47.600;9.890;2023-04-03T04:14:28;40.53;38.67;43.58;;
60031;Laerm;45901;47.600;9.890;2023-04-03T04:16:55;40.46;38.52;43.77;;
60031;Laerm;45901;47.600;9.890;2023-04-03T04:19:22;40.44;38.81;42.88;;
60031;Laerm;45901;47.600;9.890;2023-04-03T04:21:50;40.51;38.81;42.76;;
60031;Laerm;45901;47.600;9.890;2023-04-03T04:24:19;40.59;38.81;44.35;;
60031;Laerm;45901;47.600;9.890;2023-04-03T04:26:46;40.65;38.81;43.99;;
60031;Laerm;45901;47.600;9.890;2023-04-03T04:29:13;40.57;38.87;44.31;;
60031;Laerm;45901;47.600;9.890;2023-04-03T04:31:40;40.56;38.52;43.44;;
60031;Laerm;45901;47.600;9.890;2023-04-03T04:34:08;40.59;38.67;43.72;;
60031;Laerm;45901;47.600;9.890;2023-04-03T04:36:35;40.85;38.81;45.33;;
60031;Laerm;45901;47.600;9.890;2023-04-03T04:39:02;40.86;38.05;47.20;;
60031;Laerm;45901;47.600;9.890;2023-04-03T04:41:31;40.84;38.81;47.08;;
60031;Laerm;45901;47.600;9.890;2023-04-03T04:43:58;40.51;38.81;49.96;;
60031;Laerm;45901;47.600;9.890;2023-04-03T04:46:25;40.47;38.67;44.51;;
60031;Laerm;45901;47.600;9.890;2023-04-03T04:48:53;40.42;38.52;42.29;;
60031;Laerm;45901;47.600;9.890;2023-04-03T04:51:20;40.36;38.81;42.76;;
60031;Laerm;45901;47.600;9.890;2023-04-03T04:53:48;40.43;38.81;45.17;;
60031;Laerm;45901;47.600;9.890;2023-04-03T04:56:15;40.49;38.67;44.51;;
60031;Laerm;45901;47.600;9.890;2023-04-03T04:58:44;40.45;38.52;44.15;;
60031;Laerm;45901;47.600;9.890;2023-04-03T05:01:12;40.67;38.37;44.69;;
60031;Laerm;45901;47.600;9.890;2023-04-03T05:03:39;40.78;38.67;46.28;;
60031;Laerm;45901;47.600;9.890;2023-04-03T05:06:06;41.58;38.81;51.32;;
60031;Laerm;45901;47.600;9.890;2023-04-03T05:08:34;41.70;39.08;45.33;;
60031;Laerm;45901;47.600;9.890;2023-04-03T05:11:01;41.16;38.81;44.52;;
60031;Laerm;45901;47.600;9.890;2023-04-03T05:13:28;41.85;38.95;48.52;;
60031;Laerm;45901;47.600;9.890;2023-04-03T05:15:57;40.82;38.95;43.99;;
60031;Laerm;45901;47.600;9.890;2023-04-03T05:18:24;40.49;38.81;42.71;;
60031;Laerm;45901;47.600;9.890;2023-04-03T05:20:51;40.33;38.05;42.35;;
60031;Laerm;45901;47.600;9.890;2023-04-03T05:23:19;40.36;38.67;43.29;;
60031;Laerm;45901;47.600;9.890;2023-04-03T05:25:46;40.29;38.05;42.47;;
60031;Laerm;45901;47.600;9.890;2023-04-03T05:28:14;40.30;38.52;42.41;;
60031;Laerm;45901;47.600;9.890;2023-04-03T05:30:41;40.42;38.52;43.14;;
60031;Laerm;45901;47.600;9.890;2023-04-03T05:33:10;40.48;38.52;44.72;;
60031;Laerm;45901;47.600;9.890;2023-04-03T05:35:37;40.36;38.37;43.49;;
60031;Laerm;45901;47.600;9.890;2023-04-03T05:38:07;40.32;38.67;43.63;;
60031;Laerm;45901;47.600;9.890;2023-04-03T05:40:34;40.29;38.52;42.82;;
60031;Laerm;45901;47.600;9.890;2023-04-03T05:43:01;40.36;38.52;42.59;;
60031;Laerm;45901;47.600;9.890;2023-04-03T05:45:30;41.19;38.37;61.56;;
60031;Laerm;45901;47.600;9.890;2023-04-03T05:47:57;40.47;38.37;42.29;;
60031;Laerm;45901;47.600;9.890;2023-04-03T05:50:26;40.53;38.52;45.36;;
60031;Laerm;45901;47.600;9.890;2023-04-03T05:52:56;40.34;38.37;42.22;;
60031;Laerm;45901;47.600;9.890;2023-04-03T05:55:24;40.32;38.52;44.31;;
60031;Laerm;45901;47.600;9.890;2023-04-03T05:57:52;40.24;38.37;48.07;;
60031;Laerm;45901;47.600;9.890;2023-04-03T06:00:19;40.38;38.37;43.72;;
60031;Laerm;45901;47.600;9.890;2023-04-03T06:02:47;40.22;38.21;42.65;;
60031;Laerm;45901;47.600;9.890;2023-04-03T06:05:14;40.20;38.21;41.89;;
60031;Laerm;45901;47.600;9.890;2023-04-03T06:07:42;40.23;38.37;42.16;;
60031;Laerm;45901;47.600;9.890;2023-04-03T06:10:12;40.36;38.37;50.92;;
60031;Laerm;45901;47.600;9.890;2023-04-03T06:12:39;40.35;38.52;42.09;;
60031;Laerm;45901;47.600;9.890;2023-04-03T06:15:08;40.55;38.52;44.62;;
60031;Laerm;45901;47.600;9.890;2023-04-03T06:17:36;40.20;38.05;41.89;;
60031;Laerm;45901;47.600;9.890;2023-04-03T06:20:04;40.20;38.37;41.68;;
60031;Laerm;45901;47.600;9.890;2023-04-03T06:22:32;40.28;38.52;41.89;;
60031;Laerm;45901;47.600;9.890;2023-04-03T06:25:00;40.26;38.37;42.88;;
60031;Laerm;45901;47.600;9.890;2023-04-03T06:27:28;40.18;38.52;45.99;;
60031;Laerm;45901;47.600;9.890;2023-04-03T06:29:55;40.18;38.37;43.86;;
60031;Laerm;45901;47.600;9.890;2023-04-03T06:32:23;40.17;37.88;41.82;;
60031;Laerm;45901;47.600;9.890;2023-04-03T06:34:50;40.32;38.37;52.54;;
60031;Laerm;45901;47.600;9.890;2023-04-03T06:37:22;40.38;38.37;42.16;;
60031;Laerm;45901;47.600;9.890;2023-04-03T06:39:51;40.37;38.52;42.93;;
60031;Laerm;45901;47.600;9.890;2023-04-03T06:42:21;40.62;38.95;46.30;;
60031;Laerm;45901;47.600;9.890;2023-04-03T06:44:48;41.00;38.52;48.64;;
60031;Laerm;45901;47.600;9.890;2023-04-03T06:47:16;40.70;38.95;42.71;;
60031;Laerm;45901;47.600;9.890;2023-04-03T06:49:44;40.79;39.34;43.63;;
60031;Laerm;45901;47.600;9.890;2023-04-03T06:52:11;40.82;38.95;42.47;;
60031;Laerm;45901;47.600;9.890;2023-04-03T06:54:39;40.78;38.95;42.88;;
60031;Laerm;45901;47.600;9.890;2023-04-03T06:57:07;40.83;39.21;42.47;;
60031;Laerm;45901;47.600;9.890;2023-04-03T06:59:36;40.69;38.95;42.71;;
60031;Laerm;45901;47.600;9.890;2023-04-03T07:02:03;41.01;39.08;44.35;;
60031;Laerm;45901;47.600;9.890;2023-04-03T07:04:30;40.82;38.95;42.93;;
60031;Laerm;45901;47.600;9.890;2023-04-03T07:06:57;40.74;38.67;42.16;;
60031;Laerm;45901;47.600;9.890;2023-04-03T07:09:24;40.87;38.81;42.59;;
60031;Laerm;45901;47.600;9.890;2023-04-03T07:11:52;40.77;38.95;43.19;;
60031;Laerm;45901;47.600;9.890;2023-04-03T07:14:19;40.65;38.81;42.16;;
60031;Laerm;45901;47.600;9.890;2023-04-03T07:16:51;40.70;38.95;43.09;;
60031;Laerm;45901;47.600;9.890;2023-04-03T07:19:18;40.73;38.81;46.76;;
60031;Laerm;45901;47.600;9.890;2023-04-03T07:21:46;40.68;38.81;41.96;;
60031;Laerm;45901;47.600;9.890;2023-04-03T07:24:13;40.77;39.21;42.76;;
60031;Laerm;45901;47.600;9.890;2023-04-03T07:26:40;40.71;39.08;44.39;;
60031;Laerm;45901;47.600;9.890;2023-04-03T07:29:07;40.74;39.08;46.38;;
60031;Laerm;45901;47.600;9.890;2023-04-03T07:31:35;40.70;38.81;42.98;;
60031;Laerm;45901;47.600;9.890;2023-04-03T07:34:03;40.64;38.81;42.88;;
60031;Laerm;45901;47.600;9.890;2023-04-03T07:36:31;40.61;38.95;45.86;;
60031;Laerm;45901;47.600;9.890;2023-04-03T07:38:59;40.58;38.67;42.53;;
60031;Laerm;45901;47.600;9.890;2023-04-03T07:41:26;40.58;38.67;42.59;;
60031;Laerm;45901;47.600;9.890;2023-04-03T07:43:54;40.64;38.95;43.04;;
60031;Laerm;45901;47.600;9.890;2023-04-03T07:46:22;40.59;38.67;45.54;;
60031;Laerm;45901;47.600;9.890;2023-04-03T07:48:49;40.51;38.32;43.81;;
60031;Laerm;45901;47.600;9.890;2023-04-03T07:51:18;40.53;38.74;43.19;;
60031;Laerm;45901;47.600;9.890;2023-04-03T07:53:46;40.54;38.81;42.09;;
60031;Laerm;45901;47.600;9.890;2023-04-03T07:56:14;40.52;38.95;42.53;;
60031;Laerm;45901;47.600;9.890;2023-04-03T07:58:42;40.70;39.08;44.19;;
60031;Laerm;45901;47.600;9.890;2023-04-03T08:01:09;40.89;38.52;45.11;;
60031;Laerm;45901;47.600;9.890;2023-04-03T08:03:36;40.57;38.67;42.22;;
60031;Laerm;45901;47.600;9.890;2023-04-03T08:06:06;40.46;38.95;41.82;;
60031;Laerm;45901;47.600;9.890;2023-04-03T08:08:35;40.52;38.95;42.13;;
60031;Laerm;45901;47.600;9.890;2023-04-03T08:11:03;41.05;38.81;60.09;;
60031;Laerm;45901;47.600;9.890;2023-04-03T08:13:32;40.96;38.81;58.93;;
60031;Laerm;45901;47.600;9.890;2023-04-03T08:16:09;40.48;38.67;43.24;;
60031;Laerm;45901;47.600;9.890;2023-04-03T08:18:37;41.23;38.95;64.04;;
60031;Laerm;45901;47.600;9.890;2023-04-03T08:21:08;40.48;38.52;41.89;;
60031;Laerm;45901;47.600;9.890;2023-04-03T08:23:37;40.64;38.67;43.44;;
60031;Laerm;45901;47.600;9.890;2023-04-03T08:26:09;40.52;38.95;44.94;;
60031;Laerm;45901;47.600;9.890;2023-04-03T08:28:38;40.62;38.67;43.63;;
60031;Laerm;45901;47.600;9.890;2023-04-03T08:31:09;40.69;39.08;43.72;;
60031;Laerm;45901;47.600;9.890;2023-04-03T08:33:38;40.69;38.81;43.63;;
60031;Laerm;45901;47.600;9.890;2023-04-03T08:36:14;40.61;38.52;43.72;;
60031;Laerm;45901;47.600;9.890;2023-04-03T08:38:44;40.64;38.67;42.82;;
60031;Laerm;45901;47.600;9.890;2023-04-03T08:41:18;40.67;38.81;48.57;;
60031;Laerm;45901;47.600;9.890;2023-04-03T08:44:11;40.72;39.08;46.69;;
60031;Laerm;45901;47.600;9.890;2023-04-03T08:46:55;40.66;38.99;46.05;;
60031;Laerm;45901;47.600;9.890;2023-04-03T08:49:30;40.63;38.67;50.37;;
60031;Laerm;45901;47.600;9.890;2023-04-03T08:52:02;40.84;38.81;45.99;;
60031;Laerm;45901;47.600;9.890;2023-04-03T08:54:35;40.70;38.52;50.55;;
60031;Laerm;45901;47.600;9.890;2023-04-03T08:57:06;40.90;38.95;48.92;;
60031;Laerm;45901;47.600;9.890;2023-04-03T08:59:35;41.11;39.08;58.78;;
60031;Laerm;45901;47.600;9.890;2023-04-03T09:02:17;40.85;38.95;45.07;;
60031;Laerm;45901;47.600;9.890;2023-04-03T09:04:50;40.59;38.95;43.34;;
60031;Laerm;45901;47.600;9.890;2023-04-03T09:07:23;40.61;38.67;44.11;;
60031;Laerm;45901;47.600;9.890;2023-04-03T09:09:56;40.61;38.52;47.52;;
60031;Laerm;45901;47.600;9.890;2023-04-03T09:12:34;40.76;38.95;47.86;;
60031;Laerm;45901;47.600;9.890;2023-04-03T09:15:15;40.61;38.67;44.23;;
60031;Laerm;45901;47.600;9.890;2023-04-03T09:17:54;40.64;38.95;43.24;;
60031;Laerm;45901;47.600;9.890;2023-04-03T09:20:33;40.74;39.08;44.35;;
60031;Laerm;45901;47.600;9.890;2023-04-03T09:23:13;40.91;38.95;45.39;;
60031;Laerm;45901;47.600;9.890;2023-04-03T09:26:01;40.76;38.81;48.31;;
60031;Laerm;45901;47.600;9.890;2023-04-03T09:28:42;40.76;38.95;43.09;;
60031;Laerm;45901;47.600;9.890;2023-04-03T09:35:19;40.72;38.95;43.49;;
60031;Laerm;45901;47.600;9.890;2023-04-03T09:37:50;40.69;39.08;42.09;;
60031;Laerm;45901;47.600;9.890;2023-04-03T09:40:37;40.74;39.21;43.72;;
60031;Laerm;45901;47.600;9.890;2023-04-03T09:43:24;40.86;38.95;43.04;;
60031;Laerm;45901;47.600;9.890;2023-04-03T09:45:52;40.86;39.21;44.65;;
60031;Laerm;45901;47.600;9.890;2023-04-03T09:48:22;40.77;39.21;42.09;;
60031;Laerm;45901;47.600;9.890;2023-04-03T09:50:59;40.93;39.08;43.58;;
60031;Laerm;45901;47.600;9.890;2023-04-03T09:53:32;40.87;39.21;48.42;;
60031;Laerm;45901;47.600;9.890;2023-04-03T09:56:04;40.85;38.87;42.93;;
60031;Laerm;45901;47.600;9.890;2023-04-03T09:58:37;40.86;39.34;42.29;;
60031;Laerm;45901;47.600;9.890;2023-04-03T10:01:20;41.24;38.81;47.06;;
60031;Laerm;45901;47.600;9.890;2023-04-03T10:04:05;40.94;39.21;44.19;;
60031;Laerm;45901;47.600;9.890;2023-04-03T10:06:35;41.10;39.46;45.27;;
60031;Laerm;45901;47.600;9.890;2023-04-03T10:09:06;40.96;39.21;42.22;;
60031;Laerm;45901;47.600;9.890;2023-04-03T10:11:59;41.03;39.34;50.57;;
60031;Laerm;45901;47.600;9.890;2023-04-03T10:14:30;40.93;38.95;44.51;;
60031;Laerm;45901;47.600;9.890;2023-04-03T10:17:09;41.10;39.46;44.73;;
60031;Laerm;45901;47.600;9.890;2023-04-03T10:19:44;41.17;39.46;45.72;;
60031;Laerm;45901;47.600;9.890;2023-04-03T10:22:21;41.28;39.46;45.11;;
60031;Laerm;45901;47.600;9.890;2023-04-03T10:25:04;41.19;39.34;45.77;;
60031;Laerm;45901;47.600;9.890;2023-04-03T10:27:48;41.34;39.46;49.75;;
60031;Laerm;45901;47.600;9.890;2023-04-03T10:30:36;41.32;39.21;53.12;;
60031;Laerm;45901;47.600;9.890;2023-04-03T10:33:20;41.07;39.21;47.00;;
60031;Laerm;45901;47.600;9.890;2023-04-03T10:36:02;41.21;39.21;45.72;;
60031;Laerm;45901;47.600;9.890;2023-04-03T10:38:46;41.65;39.70;46.38;;
60031;Laerm;45901;47.600;9.890;2023-04-03T10:41:21;41.28;39.34;49.45;;
60031;Laerm;45901;47.600;9.890;2023-04-03T10:44:02;41.04;39.34;42.82;;
60031;Laerm;45901;47.600;9.890;2023-04-03T10:46:38;41.35;39.58;47.02;;
60031;Laerm;45901;47.600;9.890;2023-04-03T10:49:25;41.37;39.58;45.69;;
60031;Laerm;45901;47.600;9.890;2023-04-03T10:52:02;41.18;39.58;48.74;;
60031;Laerm;45901;47.600;9.890;2023-04-03T10:54:37;41.39;39.46;47.95;;
60031;Laerm;45901;47.600;9.890;2023-04-03T10:57:08;41.68;39.46;50.17;;
60031;Laerm;45901;47.600;9.890;2023-04-03T10:59:41;41.67;39.70;46.84;;
60031;Laerm;45901;47.600;9.890;2023-04-03T11:02:19;42.11;39.46;49.93;;
60031;Laerm;45901;47.600;9.890;2023-04-03T11:04:54;41.57;39.46;51.30;;
60031;Laerm;45901;47.600;9.890;2023-04-03T11:07:26;41.66;39.46;51.73;;
60031;Laerm;45901;47.600;9.890;2023-04-03T11:10:00;42.03;39.70;47.96;;
60031;Laerm;45901;47.600;9.890;2023-04-03T11:12:35;41.94;39.34;46.38;;
60031;Laerm;45901;47.600;9.890;2023-04-03T11:15:11;41.50;39.08;46.40;;
60031;Laerm;45901;47.600;9.890;2023-04-03T11:38:46;41.35;39.08;51.50;;
60031;Laerm;45901;47.600;9.890;2023-04-03T11:42:24;41.26;39.34;46.25;;
60031;Laerm;45901;47.600;9.890;2023-04-03T11:53:33;42.23;39.21;50.18;;
60031;Laerm;45901;47.600;9.890;2023-04-03T11:56:29;44.64;39.81;56.53;;
60031;Laerm;45901;47.600;9.890;2023-04-03T11:59:36;45.97;39.81;52.48;;
60031;Laerm;45901;47.600;9.890;2023-04-03T12:02:37;42.18;39.21;50.86;;
60031;Laerm;45901;47.600;9.890;2023-04-03T12:05:27;41.67;39.34;47.15;;
60031;Laerm;45901;47.600;9.890;2023-04-03T12:08:25;41.78;39.08;49.23;;
60031;Laerm;45901;47.600;9.890;2023-04-03T12:11:23;42.71;38.21;50.51;;
60031;Laerm;45901;47.600;9.890;2023-04-03T12:14:04;41.73;39.08;48.02;;
60031;Laerm;45901;47.600;9.890;2023-04-03T12:16:42;41.44;39.21;48.10;;
60031;Laerm;45901;47.600;9.890;2023-04-03T12:19:36;41.08;39.08;45.01;;
60031;Laerm;45901;47.600;9.890;2023-04-03T12:22:16;41.17;38.81;45.27;;
60031;Laerm;45901;47.600;9.890;2023-04-03T12:24:48;41.05;38.67;44.47;;
60031;Laerm;45901;47.600;9.890;2023-04-03T12:27:32;41.34;39.21;46.57;;
60031;Laerm;45901;47.600;9.890;2023-04-03T12:34:48;41.11;39.08;43.63;;
60031;Laerm;45901;47.600;9.890;2023-04-03T12:50:50;41.03;38.81;44.27;;
60031;Laerm;45901;47.600;9.890;2023-04-03T12:53:47;41.17;39.21;44.62;;
60031;Laerm;45901;47.600;9.890;2023-04-03T12:56:21;41.24;39.21;53.29;;
60031;Laerm;45901;47.600;9.890;2023-04-03T12:58:52;41.19;39.34;43.86;;
60031;Laerm;45901;47.600;9.890;2023-04-03T13:01:22;41.34;38.99;47.83;;
60031;Laerm;45901;47.600;9.890;2023-04-03T13:03:53;41.22;38.81;51.20;;
60031;Laerm;45901;47.600;9.890;2023-04-03T13:06:26;42.87;38.95;49.57;;
60031;Laerm;45901;47.600;9.890;2023-04-03T13:08:57;41.26;38.95;44.87;;
60031;Laerm;45901;47.600;9.890;2023-04-03T13:11:27;41.05;38.67;44.43;;
60031;Laerm;45901;47.600;9.890;2023-04-03T13:13:59;41.05;38.81;49.32;;
60031;Laerm;45901;47.600;9.890;2023-04-03T13:16:27;41.18;39.21;46.82;;
60031;Laerm;45901;47.600;9.890;2023-04-03T13:18:55;41.14;38.81;55.79;;
60031;Laerm;45901;47.600;9.890;2023-04-03T13:21:27;40.86;38.81;45.42;;
60031;Laerm;45901;47.600;9.890;2023-04-03T13:24:11;41.12;39.08;45.17;;
60031;Laerm;45901;47.600;9.890;2023-04-03T13:26:39;41.07;38.37;44.43;;
60031;Laerm;45901;47.600;9.890;2023-04-03T13:29:26;41.00;38.52;49.30;;
60031;Laerm;45901;47.600;9.890;2023-04-03T13:32:02;41.20;38.37;44.76;;
60031;Laerm;45901;47.600;9.890;2023-04-03T13:35:27;40.87;38.95;44.97;;
60031;Laerm;45901;47.600;9.890;2023-04-03T13:38:59;41.32;38.05;52.74;;
60031;Laerm;45901;47.600;9.890;2023-04-03T14:05:29;41.11;38.67;50.30;;
60031;Laerm;45901;47.600;9.890;2023-04-03T14:07:56;40.87;38.37;44.03;;
60031;Laerm;45901;47.600;9.890;2023-04-03T14:10:24;40.87;38.95;43.19;;
60031;Laerm;45901;47.600;9.890;2023-04-03T14:12:51;44.26;38.81;69.46;;
60031;Laerm;45901;47.600;9.890;2023-04-03T14:15:38;40.94;38.81;44.97;;
60031;Laerm;45901;47.600;9.890;2023-04-03T14:18:05;41.20;38.67;47.07;;
60031;Laerm;45901;47.600;9.890;2023-04-03T14:20:34;40.83;38.81;43.58;;
60031;Laerm;45901;47.600;9.890;2023-04-03T14:23:04;41.12;38.95;48.64;;
60031;Laerm;45901;47.600;9.890;2023-04-03T14:25:33;40.93;38.67;43.49;;
60031;Laerm;45901;47.600;9.890;2023-04-03T14:28:39;40.89;38.81;43.86;;
60031;Laerm;45901;47.600;9.890;2023-04-03T14:31:53;41.14;38.67;49.00;;
60031;Laerm;45901;47.600;9.890;2023-04-03T14:34:28;41.07;38.81;50.22;;
60031;Laerm;45901;47.600;9.890;2023-04-03T14:36:56;40.73;38.21;42.65;;
60031;Laerm;45901;47.600;9.890;2023-04-03T14:39:23;40.74;38.67;43.90;;
60031;Laerm;45901;47.600;9.890;2023-04-03T14:41:51;40.97;38.81;47.84;;
60031;Laerm;45901;47.600;9.890;2023-04-03T14:44:21;40.98;38.67;44.94;;
60031;Laerm;45901;47.600;9.890;2023-04-03T14:46:49;40.93;38.67;46.33;;
60031;Laerm;45901;47.600;9.890;2023-04-03T14:49:36;40.97;38.02;44.47;;
60031;Laerm;45901;47.600;9.890;2023-04-03T14:52:23;41.02;38.67;44.83;;
60031;Laerm;45901;47.600;9.890;2023-04-03T14:54:52;40.98;38.81;43.04;;
60031;Laerm;45901;47.600;9.890;2023-04-03T14:57:23;41.00;38.81;44.23;;
60031;Laerm;45901;47.600;9.890;2023-04-03T14:59:51;42.32;38.74;54.65;;
60031;Laerm;45901;47.600;9.890;2023-04-03T15:02:29;41.21;39.08;47.20;;
60031;Laerm;45901;47.600;9.890;2023-04-03T15:04:57;41.09;38.81;46.69;;
60031;Laerm;45901;47.600;9.890;2023-04-03T15:07:29;41.00;38.67;43.14;;
60031;Laerm;45901;47.600;9.890;2023-04-03T15:09:57;41.25;39.08;44.54;;
60031;Laerm;45901;47.600;9.890;2023-04-03T15:12:26;41.06;38.52;43.90;;
60031;Laerm;45901;47.600;9.890;2023-04-03T15:14:53;41.06;38.67;46.75;;
60031;Laerm;45901;47.600;9.890;2023-04-03T15:17:23;40.97;38.81;43.24;;
60031;Laerm;45901;47.600;9.890;2023-04-03T15:19:51;40.98;39.08;43.81;;
60031;Laerm;45901;47.600;9.890;2023-04-03T15:22:19;41.24;38.52;46.57;;
60031;Laerm;45901;47.600;9.890;2023-04-03T15:24:48;40.93;38.95;43.34;;
60031;Laerm;45901;47.600;9.890;2023-04-03T15:27:16;41.08;39.21;43.24;;